createdAt,value
2023-08-23T00:02:09.634Z,100655.91
2023-08-23T00:07:13.046Z,100650.75
2023-08-23T00:12:17.532Z,100647.22
2023-08-23T00:17:20.417Z,100652.50
2023-08-23T00:22:23.422Z,100651.91
2023-08-23T00:27:27.644Z,100652.38
2023-08-23T00:32:30.898Z,100657.34
2023-08-23T00:37:33.871Z,100670.47
2023-08-23T00:42:38.806Z,100661.50
2023-08-23T00:47:42.057Z,100667.19
2023-08-23T00:52:52.745Z,100668.50
2023-08-23T00:57:58.155Z,100668.50
2023-08-23T01:03:01.320Z,100665.94
2023-08-23T01:08:05.910Z,100661.25
2023-08-23T01:13:14.051Z,100663.97
2023-08-23T01:18:17.035Z,100670.53
2023-08-23T01:23:21.350Z,100667.81
2023-08-23T01:28:24.227Z,100668.25
2023-08-23T01:33:30.148Z,100670.97
2023-08-23T01:38:34.349Z,100666.69
2023-08-23T01:43:37.203Z,100667.69
2023-08-23T01:48:40.074Z,100667.97
2023-08-23T01:53:44.334Z,100673.84
2023-08-23T01:58:48.133Z,100671.44
2023-08-23T02:03:51.037Z,100671.44
2023-08-23T02:08:55.289Z,100674.41
2023-08-23T02:13:58.205Z,100672.56
2023-08-23T02:19:06.321Z,100664.72
2023-08-23T02:24:10.798Z,100661.47
2023-08-23T02:29:14.628Z,100656.47
2023-08-23T02:34:17.489Z,100662.03
2023-08-23T02:39:21.714Z,100658.19
2023-08-23T02:44:24.577Z,100653.94
2023-08-23T02:49:27.491Z,100653.47
2023-08-23T02:54:31.723Z,100653.47
2023-08-23T02:59:34.609Z,100655.75
2023-08-23T03:04:37.455Z,100654.06
2023-08-23T03:09:41.858Z,100645.09
2023-08-23T03:14:44.670Z,100643.66
2023-08-23T03:19:48.832Z,100641.81
2023-08-23T03:24:53.309Z,100650.00
2023-08-23T03:29:56.406Z,100652.06
2023-08-23T03:34:59.719Z,100661.19
2023-08-23T03:40:05.822Z,100667.22
2023-08-23T03:45:09.682Z,100675.19
2023-08-23T03:50:12.663Z,100679.44
2023-08-23T03:55:17.269Z,100674.03
2023-08-23T04:00:20.398Z,100672.31
2023-08-23T04:05:23.279Z,100675.59
2023-08-23T04:10:27.591Z,100680.75
2023-08-23T04:15:30.469Z,100675.25
2023-08-23T04:20:33.333Z,100676.13
2023-08-23T04:25:37.649Z,100683.50
2023-08-23T04:30:43.654Z,100684.72
2023-08-23T04:35:46.758Z,100679.50
2023-08-23T04:40:51.071Z,100687.56
2023-08-23T04:45:55.143Z,100687.44
2023-08-23T04:50:58.849Z,100686.59
2023-08-23T04:56:05.238Z,100688.91
2023-08-23T05:01:09.282Z,100697.22
2023-08-23T05:06:15.023Z,100704.50
2023-08-23T05:11:19.461Z,100702.94
2023-08-23T05:16:22.910Z,100702.34
2023-08-23T05:21:26.914Z,100695.78
2023-08-23T05:26:31.350Z,100703.91
2023-08-23T05:31:34.591Z,100707.44
2023-08-23T05:36:39.979Z,100708.44
2023-08-23T05:41:50.521Z,100705.91
2023-08-23T05:46:53.973Z,100709.03
2023-08-23T05:51:57.351Z,100700.78
2023-08-23T05:57:02.513Z,100705.16
2023-08-23T06:02:13.345Z,100706.75
2023-08-23T06:07:21.409Z,100703.47
2023-08-23T06:12:29.195Z,100704.31
2023-08-23T06:17:32.809Z,100704.69
2023-08-23T06:22:36.277Z,100714.88
2023-08-23T06:27:48.224Z,100707.84
2023-08-23T06:32:56.368Z,100710.03
2023-08-23T06:38:00.096Z,100716.00
2023-08-23T06:43:05.177Z,100714.44
2023-08-23T06:48:12.114Z,100712.38
2023-08-23T06:53:16.368Z,100723.53
2023-08-23T06:58:22.404Z,100723.03
2023-08-23T07:03:31.392Z,100722.03
2023-08-23T07:08:38.851Z,100719.72
2023-08-23T07:13:49.289Z,100717.50
2023-08-23T07:18:57.183Z,100716.41
2023-08-23T07:24:01.874Z,100725.25
2023-08-23T07:29:07.837Z,100719.53
2023-08-23T07:34:14.943Z,100718.13
2023-08-23T07:39:26.834Z,100731.13
2023-08-23T07:44:39.510Z,100730.72
2023-08-23T07:49:44.798Z,100731.47
2023-08-23T07:54:47.881Z,100733.13
2023-08-23T07:59:53.643Z,100735.88
2023-08-23T08:04:56.972Z,100738.66
2023-08-23T08:10:00.190Z,100733.81
2023-08-23T08:15:09.237Z,100740.50
2023-08-23T08:20:19.108Z,100743.13
2023-08-23T08:25:25.695Z,100744.00
2023-08-23T08:30:32.978Z,100744.66
2023-08-23T08:35:38.344Z,100744.31
2023-08-23T08:40:45.039Z,100745.81
2023-08-23T08:45:50.861Z,100751.00
2023-08-23T08:50:55.091Z,100749.44
2023-08-23T08:56:05.589Z,100740.06
2023-08-23T09:01:19.520Z,100749.03
2023-08-23T09:06:30.876Z,100745.09
2023-08-23T09:11:41.792Z,100742.59
2023-08-23T09:16:55.948Z,100738.09
2023-08-23T09:22:13.705Z,100739.31
2023-08-23T09:27:51.779Z,100745.75
2023-08-23T09:33:04.870Z,100744.94
2023-08-23T09:38:17.781Z,100755.94
2023-08-23T09:43:30.897Z,100758.47
2023-08-23T09:48:43.196Z,100755.81
2023-08-23T09:53:58.673Z,100748.31
2023-08-23T09:59:09.496Z,100752.91
2023-08-23T10:04:23.449Z,100743.25
2023-08-23T10:09:33.954Z,100738.59
2023-08-23T10:14:50.568Z,100729.13
2023-08-23T10:20:03.920Z,100727.00
2023-08-23T10:25:23.068Z,100715.66
2023-08-23T10:30:35.706Z,100714.47
2023-08-23T10:35:53.247Z,100704.69
2023-08-23T10:41:12.005Z,100705.56
2023-08-23T10:46:26.804Z,100703.97
2023-08-23T10:51:39.966Z,100697.31
2023-08-23T10:56:52.076Z,100684.94
2023-08-23T11:02:05.139Z,100682.69
2023-08-23T11:07:19.375Z,100691.66
2023-08-23T11:12:35.072Z,100681.50
2023-08-23T11:17:47.873Z,100673.16
2023-08-23T11:23:05.601Z,100673.97
2023-08-23T11:28:21.692Z,100664.00
2023-08-23T11:33:45.536Z,100661.25
2023-08-23T11:38:57.239Z,100671.22
2023-08-23T11:44:13.476Z,100661.06
2023-08-23T11:49:24.262Z,100664.03
2023-08-23T11:54:36.052Z,100662.53
2023-08-23T11:59:47.027Z,100658.56
2023-08-23T12:05:01.065Z,100656.75
2023-08-23T12:10:17.915Z,100646.47
2023-08-23T12:15:28.372Z,100646.06
2023-08-23T12:20:38.667Z,100642.94
2023-08-23T12:25:50.940Z,100644.53
2023-08-23T12:30:59.614Z,100644.97
2023-08-23T12:36:13.335Z,100636.22
2023-08-23T12:41:21.165Z,100643.22
2023-08-23T12:46:24.400Z,100631.91
2023-08-23T12:51:28.010Z,100631.56
2023-08-23T12:56:32.665Z,100633.75
2023-08-23T13:01:35.962Z,100626.25
2023-08-23T13:06:39.289Z,100631.66
2023-08-23T13:11:43.968Z,100630.34
2023-08-23T13:16:47.567Z,100624.88
2023-08-23T13:21:50.799Z,100626.56
2023-08-23T13:26:55.076Z,100632.16
2023-08-23T13:32:00.063Z,100620.22
2023-08-23T13:37:06.680Z,100618.84
2023-08-23T13:42:11.487Z,100612.97
2023-08-23T13:47:14.784Z,100610.59
2023-08-23T13:52:18.068Z,100608.13
2023-08-23T13:57:22.412Z,100605.25
2023-08-23T14:02:25.412Z,100595.75
2023-08-23T14:07:29.096Z,100581.22
2023-08-23T14:12:34.215Z,100574.28
2023-08-23T14:17:37.708Z,100566.13
2023-08-23T14:22:40.711Z,100569.31
2023-08-23T14:27:45.611Z,100564.91
2023-08-23T14:32:50.262Z,100566.59
2023-08-23T14:37:53.425Z,100573.41
2023-08-23T14:42:57.722Z,100571.03
2023-08-23T14:48:00.816Z,100562.56
2023-08-23T14:53:03.864Z,100563.72
2023-08-23T14:58:08.940Z,100562.69
2023-08-23T15:03:12.892Z,100562.69
2023-08-23T15:08:17.863Z,100556.94
2023-08-23T15:13:23.439Z,100561.69
2023-08-23T15:18:26.572Z,100548.28
2023-08-23T15:23:30.078Z,100542.47
2023-08-23T15:28:40.553Z,100551.84
2023-08-23T15:33:50.551Z,100558.97
2023-08-23T15:38:53.709Z,100554.88
2023-08-23T15:43:58.102Z,100553.69
2023-08-23T15:49:01.607Z,100555.69
2023-08-23T15:54:04.934Z,100566.56
2023-08-23T15:59:11.573Z,100546.84
2023-08-23T16:04:16.228Z,100552.84
2023-08-23T16:09:19.387Z,100558.91
2023-08-23T16:14:24.217Z,100560.09
2023-08-23T16:19:27.337Z,100553.63
2023-08-23T16:24:32.187Z,100552.59
2023-08-23T16:29:37.033Z,100550.19
2023-08-23T16:34:40.720Z,100552.38
2023-08-23T16:39:43.860Z,100548.25
2023-08-23T16:44:48.710Z,100549.25
2023-08-23T16:49:52.135Z,100557.72
2023-08-23T16:54:55.482Z,100557.81
2023-08-23T17:00:00.526Z,100546.75
2023-08-23T17:05:04.112Z,100545.72
2023-08-23T17:10:08.373Z,100537.59
2023-08-23T17:15:17.237Z,100540.78
2023-08-23T17:20:21.633Z,100548.03
2023-08-23T17:25:24.605Z,100552.25
2023-08-23T17:30:30.041Z,100552.72
2023-08-23T17:35:33.171Z,100550.78
2023-08-23T17:40:39.608Z,100560.50
2023-08-23T17:45:51.630Z,100558.78
2023-08-23T17:50:58.112Z,100561.47
2023-08-23T17:56:01.890Z,100570.63
2023-08-23T18:06:25.736Z,100568.63
2023-08-23T18:11:32.463Z,100569.25
2023-08-23T18:16:37.560Z,100573.31
2023-08-23T18:21:42.697Z,100585.44
2023-08-23T18:26:46.370Z,100585.63
2023-08-23T18:31:50.122Z,100583.53
2023-08-23T18:36:54.847Z,100588.41
2023-08-23T18:41:57.859Z,100598.75
2023-08-23T18:47:00.893Z,100602.59
2023-08-23T18:52:06.261Z,100602.06
2023-08-23T18:57:09.984Z,100611.22
2023-08-23T19:02:14.608Z,100602.00
2023-08-23T19:07:19.594Z,100616.09
2023-08-23T19:12:22.654Z,100623.38
2023-08-23T19:17:26.083Z,100629.81
2023-08-23T19:22:30.430Z,100633.38
2023-08-23T19:27:33.902Z,100629.97
2023-08-23T19:32:37.992Z,100629.13
2023-08-23T19:37:45.361Z,100632.84
2023-08-23T19:42:49.782Z,100636.56
2023-08-23T19:47:54.074Z,100637.56
2023-08-23T19:52:58.916Z,100630.56
2023-08-23T19:58:03.616Z,100641.28
2023-08-23T20:03:07.664Z,100639.44
2023-08-23T20:08:12.700Z,100650.41
2023-08-23T20:13:21.070Z,100652.13
2023-08-23T20:18:36.041Z,100653.19
2023-08-23T20:23:50.550Z,100654.91
2023-08-23T20:29:05.450Z,100660.88
2023-08-23T20:34:17.552Z,100657.06
2023-08-23T20:39:31.422Z,100661.81
2023-08-23T20:44:42.008Z,100666.97
2023-08-23T20:49:50.256Z,100677.72
2023-08-23T20:55:02.054Z,100685.13
2023-08-23T21:00:17.067Z,100684.44
2023-08-23T21:05:27.826Z,100676.63
2023-08-23T21:10:33.979Z,100679.59
2023-08-23T21:15:47.790Z,100681.78
2023-08-23T21:20:59.364Z,100672.09
2023-08-23T21:26:12.996Z,100677.66
2023-08-23T21:31:19.742Z,100682.81
2023-08-23T21:36:26.907Z,100684.84
2023-08-23T21:41:32.425Z,100682.41
2023-08-23T21:46:35.629Z,100679.56
2023-08-23T21:51:41.600Z,100679.00
2023-08-23T21:56:47.584Z,100682.97
2023-08-23T22:01:50.633Z,100679.69
2023-08-23T22:06:53.782Z,100682.84
2023-08-23T22:11:58.738Z,100681.56
2023-08-23T22:17:01.644Z,100676.63
2023-08-23T22:22:04.586Z,100675.78
2023-08-23T22:27:10.243Z,100670.22
2023-08-23T22:32:13.679Z,100663.13
2023-08-23T22:37:16.641Z,100674.09
2023-08-23T22:42:21.803Z,100665.66
2023-08-23T22:47:26.164Z,100665.50
2023-08-23T22:52:29.081Z,100653.50
2023-08-23T22:57:33.601Z,100654.50
2023-08-23T23:02:40.047Z,100652.13
2023-08-23T23:07:43.185Z,100651.41
2023-08-23T23:12:47.466Z,100650.84
2023-08-23T23:17:50.884Z,100651.16
2023-08-23T23:22:53.959Z,100651.06
2023-08-23T23:27:58.520Z,100653.03
2023-08-23T23:33:01.542Z,100644.78
2023-08-23T23:38:05.152Z,100640.81
2023-08-23T23:43:09.410Z,100646.22
2023-08-23T23:48:13.843Z,100651.78
2023-08-23T23:53:16.865Z,100648.38
2023-08-23T23:58:21.884Z,100649.06
